»·PEaware :: SWA1283 KSAN-KLAS

SWA1283 :: KSAN-KLAS

FLIGHT INFORMATION

Flight Status: Arrived
Operator:
Southwest Airlines
More flights by this operator :: More flights under this callsign
Pilot: Sanjiv S. (4490)
Aircraft: BOEING 737-800
(B738)
More flights by this aircraft type
Origin: KSAN San Diego Intl-Lindbergh
United States
Destination: KLAS McCarran Intl
United States
More flights between these airports :: More routes between these airports
Route: +PADRZ2 CHKNN SEBBY YELAH MISEN KEPEC6
File this flight plan on PilotEdge
Remarks: PBN / A1B1C1D1S1S2 NAV / RNVD1E2A1 REG / N806SB RMK / SIMBRIEF / VR
Altitude:
(Current/Filed)
29,000ft
Speed:
(Current/Filed)
468kts
Departed: 03-Dec-18 09:30 AM
Arrived: 03-Dec-18 10:34 AM
Distance/Time
Traveled:
225nm/1:04
Distance/Time
To Go:
Arrived

Flight Plot

Page will automatically refresh every two minutes.

Flight plan parsing failed; only flown route is shown


Map Options




Map Legend


Flown Route
Filed Route
Departure Airport
Arrival Airport
Navaid (VOR, NDB)
Fix

Horizontal Profiles

Position Reports

Time Latitude Longitude Heading Altitude Ground
Speed
03-Dec-18 08:38 32.733340 -117.196466 0 22ft 0kts
03-Dec-18 08:39 32.733340 -117.196466 176 22ft 0kts
03-Dec-18 08:40 32.733340 -117.196466 176 22ft 0kts
03-Dec-18 08:41 32.733340 -117.196466 176 22ft 0kts
03-Dec-18 08:42 32.733340 -117.196466 176 22ft 0kts
03-Dec-18 08:43 32.733340 -117.196466 176 22ft 0kts
03-Dec-18 08:44 32.733340 -117.196466 176 22ft 0kts
03-Dec-18 08:45 32.733340 -117.196466 176 22ft 0kts
03-Dec-18 08:46 32.733340 -117.196466 176 22ft 0kts
03-Dec-18 08:47 32.733340 -117.196466 176 22ft 0kts
03-Dec-18 08:48 32.733340 -117.196466 176 22ft 0kts
03-Dec-18 08:49 32.733340 -117.196466 176 22ft 0kts
03-Dec-18 08:50 32.733340 -117.196466 176 22ft 0kts
03-Dec-18 08:51 32.733340 -117.196466 176 22ft 0kts
03-Dec-18 08:52 32.733340 -117.196466 176 22ft 0kts
03-Dec-18 08:53 32.733340 -117.196466 176 22ft 0kts
03-Dec-18 08:54 32.733340 -117.196466 176 22ft 0kts
03-Dec-18 08:55 32.733340 -117.196466 176 22ft 0kts
03-Dec-18 08:56 32.733340 -117.196466 176 22ft 0kts
03-Dec-18 08:57 32.733340 -117.196466 176 22ft 0kts
03-Dec-18 08:58 32.733340 -117.196466 176 22ft 0kts
03-Dec-18 08:59 32.733340 -117.196466 176 22ft 0kts
03-Dec-18 09:00 32.733340 -117.196466 176 22ft 0kts
03-Dec-18 09:01 32.733340 -117.196466 176 22ft 0kts
03-Dec-18 09:02 32.733340 -117.196466 176 22ft 0kts
03-Dec-18 09:03 32.733340 -117.196466 176 22ft 0kts
03-Dec-18 09:04 32.733340 -117.196466 176 22ft 0kts
03-Dec-18 09:05 32.733340 -117.196466 176 22ft 0kts
03-Dec-18 09:06 32.733340 -117.196466 176 22ft 0kts
03-Dec-18 09:07 32.733340 -117.196466 176 22ft 0kts
03-Dec-18 09:08 32.733340 -117.196466 176 22ft 0kts
03-Dec-18 09:09 32.733340 -117.196466 176 22ft 0kts
03-Dec-18 09:10 32.733340 -117.196466 176 22ft 0kts
03-Dec-18 09:11 32.733340 -117.196466 176 22ft 0kts
03-Dec-18 09:12 32.733340 -117.196466 176 22ft 0kts
03-Dec-18 09:13 32.733340 -117.196466 176 22ft 0kts
03-Dec-18 09:14 32.733340 -117.196466 176 22ft 0kts
03-Dec-18 09:15 32.733340 -117.196466 176 22ft 0kts
03-Dec-18 09:16 32.733340 -117.196466 176 22ft 0kts
03-Dec-18 09:17 32.733340 -117.196466 176 22ft 0kts
03-Dec-18 09:18 32.733340 -117.196466 176 22ft 0kts
03-Dec-18 09:19 32.733340 -117.196466 176 22ft 0kts
03-Dec-18 09:20 32.733473 -117.196476 168 22ft 2kts
03-Dec-18 09:21 32.733588 -117.197047 39 22ft 2kts
03-Dec-18 09:22 32.733444 -117.197129 18 22ft 0kts
03-Dec-18 09:23 32.733444 -117.197129 18 22ft 0kts
03-Dec-18 09:24 32.733444 -117.197129 18 22ft 0kts
03-Dec-18 09:25 32.733444 -117.197129 18 22ft 0kts
03-Dec-18 09:26 32.733464 -117.197121 18 22ft 0kts
03-Dec-18 09:27 32.733628 -117.197057 18 22ft 0kts
03-Dec-18 09:28 32.734104 -117.196646 75 22ft 6kts
03-Dec-18 09:29 32.732947 -117.191338 106 22ft 30kts
03-Dec-18 09:30 32.730440 -117.180975 105 22ft 32kts
03-Dec-18 09:31 32.729548 -117.177434 105 22ft 14kts
03-Dec-18 09:32 32.730300 -117.176258 286 22ft 0kts
03-Dec-18 09:33 32.734231 -117.192388 286 22ft 148kts
03-Dec-18 09:34 32.752342 -117.245075 306 1475ft 193kts
03-Dec-18 09:35 32.789903 -117.303442 307 2589ft 236kts
03-Dec-18 09:36 32.830148 -117.365736 308 4791ft 260kts
03-Dec-18 09:37 32.874035 -117.433807 308 7589ft 265kts
03-Dec-18 09:38 32.910845 -117.490957 307 9736ft 269kts
03-Dec-18 09:39 32.967266 -117.578737 306 11791ft 307kts
03-Dec-18 09:40 33.009935 -117.645302 305 13874ft 311kts
03-Dec-18 09:41 33.071344 -117.737975 313 15943ft 316kts
03-Dec-18 09:42 33.120420 -117.776253 337 17449ft 332kts
03-Dec-18 09:43 33.215160 -117.782675 353 19523ft 352kts
03-Dec-18 09:44 33.289977 -117.782218 353 20993ft 359kts
03-Dec-18 09:45 33.394034 -117.781575 352 22849ft 369kts
03-Dec-18 09:46 33.454522 -117.781202 352 23816ft 374kts
03-Dec-18 09:47 33.529454 -117.780739 352 24937ft 380kts
03-Dec-18 09:48 33.603368 -117.780275 352 25965ft 386kts
03-Dec-18 09:49 33.667228 -117.779875 352 26774ft 391kts
03-Dec-18 09:50 33.741036 -117.779677 0 28192ft 368kts
03-Dec-18 09:51 33.828458 -117.779003 0 29208ft 358kts
03-Dec-18 09:52 33.912887 -117.778350 0 29333ft 360kts
03-Dec-18 09:53 33.997213 -117.777696 0 29649ft 359kts
03-Dec-18 09:54 34.077320 -117.764368 15 29324ft 358kts
03-Dec-18 09:55 34.146272 -117.718076 48 29341ft 372kts
03-Dec-18 09:56 34.191989 -117.626688 53 29337ft 397kts
03-Dec-18 09:57 34.252149 -117.536053 50 29323ft 422kts
03-Dec-18 09:58 34.314823 -117.442819 50 29323ft 444kts
03-Dec-18 09:59 34.379546 -117.346698 50 29320ft 447kts
03-Dec-18 10:00 34.443570 -117.251712 50 29320ft 447kts
03-Dec-18 10:01 34.509836 -117.153510 50 29320ft 447kts
03-Dec-18 10:02 34.574201 -117.058227 50 29320ft 447kts
03-Dec-18 10:03 34.637979 -116.963915 50 29320ft 447kts
03-Dec-18 10:04 34.702814 -116.868138 50 29320ft 447kts
03-Dec-18 10:05 34.769805 -116.769275 50 29088ft 448kts
03-Dec-18 10:06 34.836210 -116.671370 50 28039ft 439kts
03-Dec-18 10:07 34.910392 -116.589697 38 26801ft 430kts
03-Dec-18 10:08 34.986926 -116.515896 38 25460ft 421kts
03-Dec-18 10:09 35.065572 -116.439537 38 23979ft 410kts
03-Dec-18 10:10 35.131843 -116.368178 46 22606ft 387kts
03-Dec-18 10:11 35.194309 -116.288930 45 21249ft 379kts
03-Dec-18 10:12 35.258360 -116.208493 45 20017ft 373kts
03-Dec-18 10:13 35.322184 -116.128166 45 18765ft 366kts
03-Dec-18 10:14 35.387433 -116.045854 45 17459ft 358kts
03-Dec-18 10:15 35.451332 -115.965049 45 16068ft 351kts
03-Dec-18 10:16 35.512294 -115.887778 45 14706ft 344kts
03-Dec-18 10:17 35.572149 -115.811735 45 13338ft 337kts
03-Dec-18 10:18 35.627724 -115.740976 45 12996ft 299kts
03-Dec-18 10:19 35.678687 -115.675956 45 12999ft 300kts
03-Dec-18 10:20 35.728910 -115.611766 45 12999ft 300kts
03-Dec-18 10:21 35.795606 -115.574203 4 13005ft 301kts
03-Dec-18 10:22 35.867543 -115.569567 2 12999ft 300kts
03-Dec-18 10:23 35.937808 -115.559928 22 13007ft 300kts
03-Dec-18 10:24 35.988764 -115.503240 60 13003ft 300kts
03-Dec-18 10:25 36.014985 -115.426584 68 12053ft 302kts
03-Dec-18 10:26 36.029785 -115.348703 93 10731ft 284kts
03-Dec-18 10:27 36.024147 -115.275397 95 9825ft 263kts
03-Dec-18 10:28 36.018694 -115.202954 95 9021ft 244kts
03-Dec-18 10:29 36.014081 -115.135991 94 8632ft 237kts
03-Dec-18 10:30 36.009595 -115.069860 94 7670ft 240kts
03-Dec-18 10:31 36.008559 -115.001731 89 6511ft 235kts
03-Dec-18 10:32 36.028846 -114.950235 16 5725ft 196kts
03-Dec-18 10:33 36.065291 -114.971786 304 4551ft 182kts
03-Dec-18 10:34 36.072825 -115.022003 271 3384ft 173kts
03-Dec-18 10:35 36.073141 -115.071127 271 2836ft 149kts
03-Dec-18 10:36 36.073654 -115.114886 270 2358ft 157kts
03-Dec-18 10:37 36.074675 -115.150424 300 2118ft 9kts
03-Dec-18 10:38 36.074774 -115.150616 304 2118ft 3kts
03-Dec-18 10:39 36.076989 -115.152297 335 2118ft 16kts
03-Dec-18 10:40 36.077915 -115.148712 80 2118ft 14kts
03-Dec-18 10:41 36.080881 -115.147928 57 2118ft 1kts
03-Dec-18 10:42 36.080974 -115.147753 56 2118ft 0kts
03-Dec-18 10:43 36.080974 -115.147753 56 2118ft 0kts

Navigation Log

Ident Type
Flight plan parsing failed, navigation log unavailable